Chautauqua County-Jamestown Airport Jamestown US
ICAO: KJHW
IATA: JHW
Category: Medium
Scheduled Services: No

Elevation: 1723 ft
TransAlt. 18000 ft.

Airport Communications:
ERIE APP/DEP:126.05
AWOS 3:118.425
BUFFALO RDO:114.7
CTAF/UNICOM:122.7

KJHW Zoom In..

If you have problems with the map follow the link
https://www.worldairports.se/pages/airport.php?
ICAO=KJHW

Runways:

(A) RW 07 length 5299 ft width 100 ft
---- / hdg 69

(B) RW 13 length 4500 ft width 100 ft
---- / hdg 129

(C) RW 25 length 5299 ft width 100 ft
ILS 109.70 / hdg 249

(D) RW 31 length 4500 ft width 100 ft
---- / hdg 309

Location; KJHW
Day. 08 / Time. 12.56 Zulu
* Altimeter: 30.20
* Temperature: -03° c. -26.6°f.
* Wind from: 170° Speed 10 kn.
Dewpoint: -08° c.
Visibility: 10 Statute Miles.
Clouds: Clear (automated report).

KJHW 081256Z AUTO 17010KT 10SM CLR M03/M08 A3020 RMK AO2 SLP256 T10331078 FZRANO


Wind From 170°
Speed 10 kn.

 
 
jpsmedia worldairports.se 2019   terms of use